Stormwatcher's Retreat Logo




                  Temp     Hi    Low   Out    Dew  Wind  Wind   Wind    Hi    Hi   Wind   Heat    THW   THSW                Rain  Solar   Solar Hi Solar   UV    UV    Hi     Heat    Cool    In     In    In     In     In   In Air          Wind  Wind    ISS   Arc.
  Date    Time     Out   Temp   Temp   Hum    Pt. Speed   Dir    Run Speed   Dir  Chill  Index  Index  Index   Bar    Rain  Rate   Rad.  Energy    Rad.  Index  Dose   UV     D-D     D-D    Temp   Hum    Dew   Heat    EMC Density     ET   Samp   Tx   Recept  Int.
------------------------------------------------------------------------------------------------------------------------------------------------------------------------------------------------------------------------------------------------------------------------
 2/20/24 12:10a   51.3   51.7   51.2    89   48.2   2.0     S   0.33   6.0     S   51.3   51.5   51.5   48.3  29.750  0.03  0.34     0     0.00      0     0.0  0.00   0.0   0.095   0.000   70.2    51   51.2   68.6   9.45  .0735    0.000   202    7    100.0   10 
 2/20/24 12:20a   50.8   51.2   50.8    90   48.0   2.0     E   0.33   7.0   ESE   50.8   51.0   51.0   47.8  29.745  0.03  0.30     0     0.00      0     0.0  0.00   0.0   0.099   0.000   70.1    51   51.1   68.5   9.45  .0735    0.000   204    7    100.0   10 
 2/20/24 12:30a   50.4   50.8   50.4    91   47.9   3.0     E   0.50   8.0    SE   50.1   50.7   50.4   47.2  29.759  0.01  0.14     0     0.00      0     0.0  0.00   0.0   0.101   0.000   70.1    51   51.1   68.5   9.45  .0736    0.000   202    7    100.0   10 
 2/20/24 12:40a   50.4   50.4   50.3    91   47.9   4.0   ESE   0.67   9.0   SSE   49.3   50.7   49.6   46.4  29.767  0.04  0.32     0     0.00      0     0.0  0.00   0.0   0.101   0.000   70.0    51   51.0   68.4   9.45  .0736    0.000   200    7    100.0   10 
 2/20/24 12:50a   50.0   50.4   50.0    92   47.8   4.0     E   0.67   9.0     E   48.9   50.4   49.3   46.1  29.760  0.01  0.32     0     0.00      0     0.0  0.00   0.0   0.104   0.000   69.9    51   50.9   68.3   9.45  .0736    0.000   203    7    100.0   10 
 2/20/24  1:00a   49.9   50.1   49.9    92   47.7   3.0     E   0.50  11.0   ENE   49.6   50.3   50.0   46.8  29.761  0.01  0.06     0     0.00      0     0.0  0.00   0.0   0.105   0.000   69.9    51   50.9   68.3   9.45  .0736    0.000   200    7    100.0   10 
 2/20/24  1:10a   49.9   49.9   49.8    93   48.0   3.0   ESE   0.50  11.0   ENE   49.6   50.3   50.0   46.8  29.760  0.01  0.06     0     0.00      0     0.0  0.00   0.0   0.105   0.000   69.8    51   50.9   68.2   9.45  .0736    0.000   203    7    100.0   10 
 2/20/24  1:20a   49.9   50.0   49.8    93   48.0   2.0   ESE   0.33   8.0   ESE   49.9   50.3   50.3   47.1  29.765  0.00  0.00     0     0.00      0     0.0  0.00   0.0   0.105   0.000   69.8    51   50.9   68.2   9.45  .0736    0.000   204    7    100.0   10 
 2/20/24  1:30a   49.9   49.9   49.8    93   48.0   3.0     E   0.50   8.0   SSE   49.6   50.3   50.0   46.8  29.767  0.00  0.00     0     0.00      0     0.0  0.00   0.0   0.105   0.000   69.7    51   50.8   68.2   9.46  .0736    0.000   203    7    100.0   10 
 2/20/24  1:40a   49.7   49.9   49.7    93   47.8   3.0   ESE   0.50   9.0     E   49.3   50.1   49.7   46.5  29.766  0.00  0.00     0     0.00      0     0.0  0.00   0.0   0.106   0.000   69.6    51   50.7   68.1   9.46  .0737    0.000   204    7    100.0   10 
 2/20/24  1:50a   49.6   49.8   49.6    93   47.7   3.0     E   0.50   9.0    SE   49.2   50.0   49.6   46.4  29.764  0.00  0.00     0     0.00      0     0.0  0.00   0.0   0.107   0.000   69.6    51   50.7   68.1   9.46  .0737    0.000   200    7    100.0   10 
 2/20/24  2:00a   49.6   49.7   49.6    93   47.7   3.0     E   0.50  10.0     S   49.2   50.0   49.6   46.4  29.763  0.00  0.00     0     0.00      0     0.0  0.00   0.0   0.107   0.000   69.5    51   50.6   68.0   9.46  .0737    0.000   201    7    100.0   10 
 2/20/24  2:10a   49.5   49.7   49.5    93   47.6   3.0     E   0.50  10.0   ESE   49.1   49.9   49.5   46.3  29.765  0.00  0.00     0     0.00      0     0.0  0.00   0.0   0.108   0.000   69.5    51   50.6   68.0   9.46  .0737    0.000   201    7    100.0   10 
 2/20/24  2:20a   49.6   49.6   49.5    93   47.7   3.0     E   0.50   9.0     E   49.2   50.0   49.6   46.4  29.765  0.00  0.00     0     0.00      0     0.0  0.00   0.0   0.107   0.000   69.4    51   50.5   68.0   9.46  .0737    0.000   203    7    100.0   10 
 2/20/24  2:30a   49.6   49.7   49.6    93   47.7   3.0     E   0.50   9.0     E   49.2   50.0   49.6   46.4  29.765  0.00  0.00     0     0.00      0     0.0  0.00   0.0   0.107   0.000   69.4    51   50.5   68.0   9.46  .0737    0.000   202    7    100.0   10 
 2/20/24  2:40a   49.5   49.7   49.5    93   47.6   2.0     E   0.33  10.0     E   49.5   49.9   49.9   46.7  29.765  0.00  0.00     0     0.00      0     0.0  0.00   0.0   0.108   0.000   69.4    51   50.5   68.0   9.46  .0737    0.000   201    7    100.0   10 
 2/20/24  2:50a   49.8   49.9   49.6    93   47.9   3.0     E   0.50   9.0     E   49.5   50.2   49.9   46.7  29.769  0.00  0.00     0     0.00      0     0.0  0.00   0.0   0.106   0.000   69.2    51   50.3   67.8   9.47  .0737    0.000   201    7    100.0   10 
 2/20/24  3:00a   50.1   50.1   49.8    93   48.2   3.0     S   0.50  10.0     E   49.8   50.5   50.2   47.0  29.769  0.00  0.00     0     0.00      0     0.0  0.00   0.0   0.103   0.000   69.2    51   50.3   67.8   9.47  .0737    0.000   201    7    100.0   10 
 2/20/24  3:10a   50.3   50.4   50.1    92   48.1   3.0     E   0.50   8.0   ENE   50.0   50.7   50.4   47.2  29.766  0.00  0.00     0     0.00      0     0.0  0.00   0.0   0.102   0.000   69.2    51   50.3   67.8   9.47  .0737    0.000   201    7    100.0   10 
 2/20/24  3:20a   50.3   50.3   50.2    92   48.1   3.0   ESE   0.50   9.0     E   50.0   50.7   50.4   47.2  29.773  0.00  0.00     0     0.00      0     0.0  0.00   0.0   0.102   0.000   69.1    51   50.2   67.8   9.47  .0738    0.000   202    7    100.0   10 
 2/20/24  3:30a   50.4   50.4   50.2    93   48.5   4.0     E   0.67  10.0     S   49.3   50.8   49.7   46.5  29.775  0.00  0.00     0     0.00      0     0.0  0.00   0.0   0.101   0.000   69.1    51   50.2   67.8   9.47  .0738    0.000   204    7    100.0   10 
 2/20/24  3:40a   50.7   50.8   50.5    92   48.5   3.0     E   0.50   9.0   ESE   50.5   51.0   50.8   47.6  29.776  0.00  0.00     0     0.00      0     0.0  0.00   0.0   0.099   0.000   69.0    51   50.1   67.7   9.47  .0738    0.000   200    7    100.0   10 
 2/20/24  3:50a   50.5   50.7   50.4    92   48.3   4.0     E   0.67   9.0   ENE   49.5   50.8   49.8   46.6  29.777  0.01  0.00     0     0.00      0     0.0  0.00   0.0   0.101   0.000   69.0    51   50.1   67.7   9.47  .0738    0.000   200    7    100.0   10 
 2/20/24  4:00a   50.1   50.4   50.0    92   47.9   3.0     E   0.50  10.0   ESE   49.8   50.5   50.2   47.0  29.780  0.00  0.00     0     0.00      0     0.0  0.00   0.0   0.103   0.000   68.9    51   50.0   67.6   9.47  .0738    0.000   202    7    100.0   10 
 2/20/24  4:10a   50.0   50.1   49.9    93   48.1   4.0     E   0.67  13.0   ENE   48.9   50.4   49.3   46.1  29.781  0.00  0.00     0     0.00      0     0.0  0.00   0.0   0.104   0.000   68.9    51   50.0   67.6   9.47  .0738    0.000   205    7    100.0   10 
 2/20/24  4:20a   50.4   50.5   50.0    92   48.2   3.0    SE   0.50   9.0   ENE   50.1   50.7   50.4   47.2  29.784  0.00  0.00     0     0.00      0     0.0  0.00   0.0   0.101   0.000   68.8    51   49.9   67.5   9.47  .0738    0.000   202    7    100.0   10 
 2/20/24  4:30a   50.6   50.6   50.5    92   48.4   3.0     S   0.50   7.0   ENE   50.4   50.9   50.7   47.5  29.785  0.00  0.00     0     0.00      0     0.0  0.00   0.0   0.100   0.000   68.8    51   49.9   67.5   9.47  .0738    0.000   204    7    100.0   10 
 2/20/24  4:40a   50.6   50.8   50.6    92   48.4   2.0     S   0.33   6.0     S   50.6   50.9   50.9   47.7  29.781  0.01  0.00     0     0.00      0     0.0  0.00   0.0   0.100   0.000   68.7    51   49.8   67.4   9.48  .0739    0.000   204    7    100.0   10 
 2/20/24  4:50a   50.4   50.6   50.3    92   48.2   2.0    SE   0.33   5.0    SW   50.4   50.7   50.7   47.5  29.788  0.00  0.00     0     0.00      0     0.0  0.00   0.0   0.101   0.000   68.7    51   49.8   67.4   9.48  .0739    0.000   205    7    100.0   10 
 2/20/24  5:00a   50.4   50.4   50.1    92   48.2   5.0     S   0.83  15.0     S   48.7   50.7   49.0   45.8  29.785  0.00  0.00     0     0.00      0     0.0  0.00   0.0   0.101   0.000   68.6    51   49.7   67.3   9.48  .0739    0.000   202    7    100.0   10 
 2/20/24  5:10a   51.0   51.0   50.5    91   48.5   4.0   SSE   0.67  14.0     S   50.0   51.2   50.2   47.0  29.790  0.00  0.00     0     0.00      0     0.0  0.00   0.0   0.097   0.000   68.6    51   49.7   67.3   9.48  .0739    0.000   203    7    100.0   10 
 2/20/24  5:20a   51.1   51.1   51.0    90   48.3   3.0   SSE   0.50   8.0   SSE   50.9   51.3   51.1   47.9  29.791  0.00  0.00     0     0.00      0     0.0  0.00   0.0   0.097   0.000   68.5    51   49.7   67.2   9.48  .0739    0.000   202    7    100.0   10 
 2/20/24  5:30a   51.0   51.1   51.0    90   48.2   4.0     S   0.67  10.0     S   50.0   51.2   50.2   47.0  29.788  0.00  0.00     0     0.00      0     0.0  0.00   0.0   0.097   0.000   68.5    51   49.7   67.2   9.48  .0739    0.000   204    7    100.0   10 
 2/20/24  5:40a   51.5   51.5   51.0    89   48.4   4.0     S   0.67  13.0   ESE   50.6   51.7   50.8   47.6  29.795  0.00  0.00     0     0.00      0     0.0  0.00   0.0   0.094   0.000   68.4    51   49.6   67.2   9.48  .0739    0.000   203    7    100.0   10 
 2/20/24  5:50a   51.8   51.8   51.5    88   48.4   4.0     S   0.67  13.0    SE   51.0   51.9   51.1   47.9  29.795  0.00  0.00     0     0.00      0     0.0  0.00   0.0   0.092   0.000   68.4    51   49.6   67.2   9.48  .0739    0.000   203    7    100.0   10 
 2/20/24  6:00a   52.0   52.0   51.7    87   48.3   4.0     S   0.67  10.0   ESE   51.2   52.1   51.3   48.1  29.802  0.00  0.00     0     0.00      0     0.0  0.00   0.0   0.090   0.000   68.5    51   49.7   67.2   9.48  .0739    0.000   202    7    100.0   10 
 2/20/24  6:10a   52.5   52.5   51.9    86   48.4   7.0     S   1.17  20.0     S   50.2   52.5   50.2   47.0  29.807  0.01  0.00     0     0.00      0     0.0  0.00   0.0   0.087   0.000   68.6    51   49.7   67.3   9.48  .0739    0.000   203    7    100.0   10 
 2/20/24  6:20a   52.7   52.9   52.5    84   48.0   7.0     S   1.17  16.0   SSE   50.4   52.6   50.3   47.1  29.810  0.01  0.05     0     0.00      0     0.0  0.00   0.0   0.085   0.000   68.8    51   49.9   67.5   9.47  .0739    0.000   203    7    100.0   10 
 2/20/24  6:30a   51.8   52.7   51.8    86   47.7   6.0     S   1.00  13.0     S   49.8   51.8   49.8   46.6  29.812  0.00  0.05     0     0.00      0     0.0  0.00   0.0   0.092   0.000   69.0    51   50.1   67.7   9.47  .0739    0.000   203    7    100.0   10 
 2/20/24  6:40a   51.5   51.7   51.5    86   47.5   6.0     S   1.00  14.0   ENE   49.5   51.5   49.5   46.3  29.817  0.01  0.05     0     0.00      0     0.0  0.00   0.0   0.094   0.000   69.1    51   50.2   67.8   9.47  .0739    0.000   201    7    100.0   10 
 2/20/24  6:50a   51.7   51.7   51.5    86   47.6   7.0     S   1.17  17.0   SSE   49.2   51.7   49.2   46.0  29.819  0.00  0.00     0     0.00      0     0.0  0.00   0.0   0.092   0.000   69.2    51   50.3   67.8   9.47  .0739    0.000   203    7    100.0   10 
 2/20/24  7:00a   51.3   51.7   51.3    86   47.3   7.0     S   1.17  21.0     S   48.8   51.3   48.8   45.6  29.824  0.00  0.00     0     0.00      0     0.0  0.00   0.0   0.095   0.000   69.4    51   50.5   68.0   9.46  .0738    0.001   200    7    100.0   10 
 2/20/24  7:10a   51.0   51.4   51.0    86   47.0   7.0     S   1.17  18.0   SSE   48.4   51.0   48.4   45.1  29.827  0.01  0.00     0     0.00      0     0.0  0.00   0.0   0.097   0.000   69.5    51   50.6   68.0   9.46  .0738    0.000   203    7    100.0   10 
 2/20/24  7:20a   50.5   51.0   50.5    87   46.8   3.0     S   0.50  10.0    SE   50.3   50.6   50.4   47.2  29.834  0.00  0.00     2     0.03      5     0.0  0.00   0.0   0.101   0.000   69.6    51   50.7   68.1   9.46  .0738    0.000   204    7    100.0   10 
 2/20/24  7:30a   50.3   50.6   50.2    88   46.9   2.0   SSE   0.33   6.0     S   50.3   50.5   50.5   47.4  29.832  0.00  0.00     9     0.13     12     0.0  0.00   0.0   0.102   0.000   69.8    51   50.9   68.2   9.45  .0738    0.000   202    7    100.0   10 
 2/20/24  7:40a   50.1   50.3   50.1    89   47.0   2.0    SE   0.33   8.0    SE   50.1   50.3   50.3   47.4  29.827  0.00  0.00    15     0.22     19     0.0  0.00   0.0   0.103   0.000   69.9    51   50.9   68.3   9.45  .0738    0.000   201    7    100.0   10 
 2/20/24  7:50a   50.3   50.4   50.1    89   47.2   3.0     S   0.50   9.0     S   50.0   50.5   50.2   47.5  29.826  0.00  0.00    24     0.34     26     0.0  0.00   0.0   0.102   0.000   70.0    51   51.0   68.4   9.45  .0737    0.000   203    7    100.0   10 
 2/20/24  8:00a   51.0   51.0   50.3    88   47.6   3.0     S   0.50   9.0   SSE   50.8   51.1   50.9   48.2  29.834  0.00  0.00    25     0.36     26     0.0  0.00   0.0   0.097   0.000   70.1    51   51.1   68.5   9.45  .0737    0.001   203    7    100.0   10 
 2/20/24  8:10a   52.1   52.1   51.0    86   48.0   7.0     S   1.17  13.0   SSW   49.7   52.1   49.7   47.2  29.841  0.00  0.00    32     0.46     40     0.0  0.00   0.0   0.090   0.000   70.2    51   51.2   68.6   9.45  .0737    0.000   204    7    100.0   10 
 2/20/24  8:20a   52.2   52.6   52.1    84   47.5   6.0     S   1.00  15.0     S   50.2   52.1   50.1   50.1  29.840  0.00  0.00    44     0.63     49     0.0  0.00   0.0   0.089   0.000   70.4    51   51.4   68.9   9.44  .0737    0.000   203    7    100.0   10 
 2/20/24  8:30a   51.9   52.2   51.9    85   47.5   3.0   ENE   0.50   9.0   SSW   51.8   51.9   51.8   52.5  29.837  0.00  0.00    60     0.86     81     0.0  0.00   0.0   0.091   0.000   70.5    51   51.5   69.0   9.44  .0737    0.000   204    7    100.0   10 
 2/20/24  8:40a   51.6   51.9   51.6    86   47.5   3.0     S   0.50   7.0     S   51.5   51.6   51.5   53.2  29.841  0.00  0.00    85     1.22     90     0.0  0.00   0.0   0.093   0.000   70.6    51   51.6   69.2   9.44  .0737    0.000   203    7    100.0   10 
 2/20/24  8:50a   51.8   51.8   51.6    86   47.7   2.0     E   0.33  10.0   SSE   51.8   51.8   51.8   54.6  29.843  0.00  0.00   115     1.65    144     0.0  0.00   0.0   0.092   0.000   70.6    51   51.6   69.2   9.44  .0737    0.000   200    7    100.0   10 
 2/20/24  9:00a   51.9   51.9   51.7    86   47.8   2.0     S   0.33  10.0   SSE   51.9   51.9   51.9   54.8  29.844  0.00  0.00   117     1.68    151     0.0  0.00   0.0   0.091   0.000   70.6    51   51.6   69.2   9.44  .0737    0.002   201    7    100.0   10 
 2/20/24  9:10a   52.0   52.1   51.9    86   47.9   3.0     S   0.50   8.0   SSE   51.9   52.0   51.9   54.7  29.845  0.00  0.00   115     1.65    156     0.0  0.00   0.0   0.090   0.000   70.5    51   51.5   69.0   9.44  .0737    0.000   203    7    100.0   10 
 2/20/24  9:20a   52.4   52.4   52.0    86   48.3   2.0    SE   0.33   9.0     E   52.4   52.4   52.4   57.0  29.847  0.00  0.00   168     2.41    185     0.0  0.00   0.0   0.087   0.000   70.4    51   51.4   68.9   9.44  .0737    0.000   203    7    100.0   10 
 2/20/24  9:30a   52.5   52.5   52.4    86   48.4   2.0    SE   0.33   5.0    SE   52.5   52.5   52.5   55.4  29.848  0.00  0.00   120     1.72    165     0.0  0.00   0.0   0.087   0.000   70.4    51   51.4   68.9   9.44  .0737    0.000   203    7    100.0   10 
 2/20/24  9:40a   52.3   52.6   52.3    86   48.2   2.0     S   0.33   7.0   ESE   52.3   52.3   52.3   53.2  29.858  0.00  0.00    72     1.03     84     0.0  0.00   0.0   0.088   0.000   70.4    51   51.4   68.9   9.44  .0738    0.000   202    7    100.0   10 
 2/20/24  9:50a   52.1   52.4   52.1    87   48.3   1.0   SSW   0.17   4.0   SSE   52.1   52.2   52.2   54.8  29.849  0.01  0.00   116     1.66    144     0.2  0.01   0.5   0.090   0.000   70.3    51   51.3   68.8   9.44  .0738    0.000   200    7    100.0   10 
 2/20/24 10:00a   52.1   52.2   52.1    88   48.7   2.0   ESE   0.33   8.0     E   52.1   52.2   52.2   56.2  29.849  0.00  0.00   161     2.31    165     0.5  0.04   0.6   0.090   0.000   70.3    51   51.3   68.8   9.44  .0738    0.003   204    7    100.0   10 
 2/20/24 10:10a   52.2   52.3   52.1    88   48.8   2.0     E   0.33   6.0   ESE   52.2   52.3   52.3   55.9  29.850  0.00  0.00   149     2.14    163     0.6  0.04   0.6   0.089   0.000   70.3    51   51.3   68.8   9.44  .0738    0.000   202    7    100.0   10 
 2/20/24 10:20a   52.6   52.6   52.2    88   49.1   3.0     E   0.50   8.0     E   52.6   52.7   52.7   58.8  29.846  0.00  0.00   229     3.28    318     0.7  0.05   0.9   0.086   0.000   70.3    51   51.3   68.8   9.44  .0737    0.000   204    7    100.0   10 
 2/20/24 10:30a   53.5   53.5   52.6    87   49.7   4.0     E   0.67   9.0   ENE   52.9   53.5   52.9   61.4  29.843  0.00  0.00   334     4.79    424     1.0  0.07   1.1   0.080   0.000   70.4    51   51.4   68.9   9.44  .0737    0.000   201    7    100.0   10 
 2/20/24 10:40a   53.8   53.8   53.5    86   49.7   4.0     E   0.67  10.0   ENE   53.3   53.7   53.2   59.2  29.843  0.00  0.00   230     3.30    309     0.9  0.06   0.9   0.078   0.000   70.5    51   51.5   69.0   9.44  .0737    0.000   204    7    100.0   10 
 2/20/24 10:50a   53.8   53.8   53.7    85   49.4   4.0     E   0.67  11.0   SSE   53.3   53.7   53.2   57.6  29.848  0.00  0.00   182     2.61    220     0.8  0.06   0.8   0.078   0.000   70.6    51   51.6   69.2   9.44  .0737    0.000   204    7    100.0   10 
 2/20/24 11:00a   54.4   54.4   53.8    83   49.3   3.0     S   0.50  11.0    NE   54.4   54.2   54.2   57.6  29.855  0.00  0.00   154     2.21    163     0.6  0.04   0.6   0.074   0.000   70.7    51   51.7   69.3   9.44  .0737    0.004   203    7    100.0   10 
 2/20/24 11:10a   54.9   55.0   54.4    80   48.8   6.0     S   1.00  17.0    SW   53.5   54.6   53.2   60.6  29.848  0.00  0.00   293     4.20    478     1.1  0.08   1.5   0.070   0.000   70.8    51   51.8   69.4   9.43  .0737    0.000   204    7    100.0   10 
 2/20/24 11:20a   55.5   55.5   55.0    80   49.4   5.0     S   0.83  10.0     S   54.7   55.2   54.4   63.0  29.846  0.00  0.00   345     4.95    501     1.3  0.09   1.4   0.066   0.000   70.8    51   51.8   69.4   9.43  .0737    0.000   204    7    100.0   10 
 2/20/24 11:30a   55.9   55.9   55.5    81   50.2   2.0   ESE   0.33   8.0     E   55.9   55.6   55.6   61.8  29.844  0.00  0.00   244     3.50    276     1.1  0.08   1.2   0.063   0.000   70.9    51   51.9   69.6   9.43  .0736    0.000   202    7    100.0   10 
 2/20/24 11:40a   56.4   56.4   55.8    80   50.3   3.0   SSE   0.50  11.0   NNE   56.4   56.1   56.1   64.8  29.846  0.00  0.00   353     5.06    510     1.3  0.09   1.6   0.060   0.000   70.9    51   51.9   69.6   9.43  .0736    0.000   202    7    100.0   10 
 2/20/24 11:50a   56.3   56.5   56.2    77   49.2   6.0     S   1.00  14.0   SSE   55.2   55.8   54.7   60.7  29.852  0.00  0.00   241     3.45    320     1.1  0.08   1.3   0.060   0.000   70.9    51   51.9   69.6   9.43  .0737    0.000   203    7    100.0   10 
 2/20/24 12:00p   55.9   56.3   55.9    78   49.1   7.0     S   1.17  13.0     E   54.3   55.5   53.9   57.6  29.853  0.00  0.00   170     2.44    181     0.8  0.06   0.9   0.063   0.000   70.9    51   51.9   69.6   9.43  .0737    0.006   202    7    100.0   10 
 2/20/24 12:10p   55.6   55.9   55.6    78   48.8   8.0     S   1.33  17.0     S   53.2   55.2   52.8   56.0  29.852  0.00  0.00   159     2.28    197     0.7  0.05   0.8   0.065   0.000   70.9    51   51.9   69.6   9.43  .0737    0.000   203    7    100.0   10 
 2/20/24 12:20p   55.4   55.7   55.4    79   49.0   5.0     S   0.83  12.0     S   54.6   55.1   54.3   60.2  29.847  0.00  0.00   237     3.40    258     1.0  0.07   1.1   0.067   0.000   70.9    51   51.9   69.6   9.43  .0736    0.000   203    7    100.0   10 
 2/20/24 12:30p   55.6   55.6   55.3    79   49.2   6.0     S   1.00  11.0   SSE   54.3   55.2   53.9   60.1  29.846  0.00  0.00   249     3.57    279     1.1  0.08   1.1   0.065   0.000   70.9    51   51.9   69.6   9.43  .0736    0.000   204    7    100.0   10 
 2/20/24 12:40p   55.7   55.7   55.6    79   49.3   6.0     S   1.00  15.0   SSE   54.4   55.3   54.0   63.0  29.846  0.00  0.00   369     5.29    621     1.3  0.09   1.7   0.065   0.000   70.9    51   51.9   69.6   9.43  .0736    0.000   202    7    100.0   10 
 2/20/24 12:50p   55.5   55.7   55.5    79   49.1   6.0     S   1.00  12.0   SSE   54.2   55.2   53.9   62.2  29.845  0.00  0.00   332     4.76    410     1.3  0.09   1.4   0.066   0.000   70.9    51   51.9   69.6   9.43  .0736    0.000   203    7    100.0   10 
 2/20/24  1:00p   55.7   55.8   55.4    79   49.3   4.0     S   0.67  12.0     S   55.4   55.3   55.0   63.5  29.840  0.00  0.00   336     4.82    373     1.4  0.10   1.5   0.065   0.000   70.9    51   51.9   69.6   9.43  .0736    0.007   204    7    100.0   10 
 2/20/24  1:10p   55.7   55.8   55.6    80   49.6   4.0     S   0.67   8.0    SW   55.4   55.4   55.1   63.8  29.839  0.00  0.00   348     4.99    396     1.3  0.09   1.5   0.065   0.000   70.9    51   51.9   69.6   9.43  .0736    0.000   202    7    100.0   10 
 2/20/24  1:20p   55.1   55.7   55.1    81   49.4   5.0     S   0.83  10.0   SSE   54.2   54.8   53.9   60.0  29.836  0.00  0.00   235     3.37    278     1.0  0.07   1.1   0.069   0.000   70.9    51   51.9   69.6   9.43  .0736    0.000   203    7    100.0   10 
 2/20/24  1:30p   54.5   55.0   54.5    82   49.1   7.0   SSW   1.17  10.0     S   52.6   54.3   52.4   59.5  29.834  0.00  0.00   276     3.96    329     1.1  0.08   1.2   0.073   0.000   70.9    51   51.9   69.6   9.43  .0736    0.000   201    7    100.0   10 
 2/20/24  1:40p   54.3   54.5   54.2    84   49.6   7.0     S   1.17  10.0   SSW   52.4   54.2   52.3   60.4  29.833  0.00  0.00   350     5.02    387     1.4  0.10   1.5   0.074   0.000   71.0    51   52.0   69.7   9.43  .0736    0.000   202    7    100.0   10 
 2/20/24  1:50p   54.0   54.3   54.0    83   49.0   6.0     S   1.00   9.0   SSW   52.4   53.8   52.2   59.5  29.824  0.00  0.00   273     3.91    308     1.1  0.08   1.2   0.076   0.000   71.0    51   52.0   69.7   9.43  .0736    0.000   199    7    100.0   10 
 2/20/24  2:00p   54.7   54.8   54.0    84   50.0   4.0     S   0.67   7.0   SSW   54.3   54.6   54.2   68.6  29.817  0.00  0.00   510     7.31    664     1.4  0.10   1.7   0.072   0.000   71.0    51   52.0   69.7   9.43  .0736    0.007   204    7    100.0   10 
 2/20/24  2:10p   54.4   54.8   54.4    84   49.7   4.0   SSW   0.67  11.0     S   53.9   54.3   53.8   56.8  29.820  0.00  0.00   129     1.85    199     0.5  0.04   1.0   0.074   0.000   71.1    51   52.0   69.8   9.43  .0735    0.000   203    7    100.0   10 
 2/20/24  2:20p   53.5   54.4   53.4    85   49.1   7.0    SW   1.17  15.0   SSE   51.4   53.4   51.3   55.4  29.821  0.00  0.00   160     2.29    188     0.6  0.04   0.8   0.080   0.000   71.0    51   52.0   69.7   9.43  .0736    0.000   202    7    100.0   10 
 2/20/24  2:30p   53.7   53.7   53.5    85   49.3   2.0     S   0.33   8.0   WSW   53.7   53.6   53.6   57.3  29.815  0.00  0.00   143     2.05    185     0.5  0.04   0.8   0.078   0.000   71.0    51   52.0   69.7   9.43  .0735    0.000   203    7    100.0   10 
 2/20/24  2:40p   53.3   53.7   53.3    85   48.9   4.0   SSW   0.67   9.0   WSW   52.7   53.2   52.6   52.9  29.820  0.01  0.00    54     0.77     84     0.0  0.00   0.0   0.081   0.000   71.0    51   52.0   69.7   9.43  .0736    0.000   203    7    100.0   10 
 2/20/24  2:50p   53.0   53.4   53.0    86   48.9   6.0     S   1.00  11.0   SSE   51.2   52.9   51.1   50.5  29.826  0.02  0.10    34     0.49     40     0.0  0.00   0.0   0.083   0.000   71.0    51   52.0   69.7   9.43  .0736    0.000   202    7    100.0   10 
 2/20/24  3:00p   52.2   53.0   52.2    87   48.4   6.0     S   1.00  10.0   SSE   50.2   52.3   50.3   49.1  29.836  0.07  1.04    21     0.30     26     0.0  0.00   0.0   0.089   0.000   70.9    51   51.9   69.6   9.43  .0736    0.002   202    7    100.0   10 
 2/20/24  3:10p   51.7   52.2   51.7    87   48.0   5.0     S   0.83  14.0   SSE   50.2   51.8   50.3   50.1  29.812  0.02  0.35    40     0.57     63     0.0  0.00   0.0   0.092   0.000   70.9    51   51.9   69.6   9.43  .0736    0.000   203    7    100.0   10 
 2/20/24  3:20p   51.6   51.7   51.5    88   48.2   4.0     S   0.67  14.0   SSE   50.7   51.7   50.8   52.4  29.816  0.00  0.04    82     1.18     86     0.0  0.00   0.0   0.093   0.000   70.9    51   51.9   69.6   9.43  .0736    0.000   200    7    100.0   10 
 2/20/24  3:30p   52.5   52.5   51.6    86   48.4   5.0     S   0.83  12.0   SSE   51.2   52.5   51.2   52.4  29.823  0.00  0.00    72     1.03     84     0.0  0.00   0.0   0.087   0.000   70.9    51   51.9   69.6   9.43  .0736    0.000   201    7    100.0   10 
 2/20/24  3:40p   52.8   53.0   52.5    86   48.7   8.0     S   1.33  14.0    SW   49.9   52.8   49.9   49.8  29.828  0.01  0.00    41     0.59     62     0.0  0.00   0.0   0.085   0.000   70.9    51   51.9   69.6   9.43  .0736    0.000   204    7    100.0   10 
 2/20/24  3:50p   52.0   52.7   52.0    88   48.6   8.0     S   1.33  23.0     S   48.9   52.1   49.0   46.9  29.828  0.02  0.17    22     0.32     26     0.0  0.00   0.0   0.090   0.000   70.8    52   52.3   69.5   9.63  .0736    0.000   202    7    100.0   10 
 2/20/24  4:00p   51.2   52.0   51.1    89   48.1  11.0     S   1.83  20.0     S   46.1   51.4   46.3   44.4  29.829  0.01  0.12    21     0.30     23     0.0  0.00   0.0   0.096   0.000   70.8    52   52.3   69.5   9.63  .0736    0.002   202    7    100.0   10 
 2/20/24  4:10p   50.9   51.2   50.8    90   48.1   7.0     S   1.17  18.0     S   48.3   51.1   48.5   46.2  29.829  0.01  0.05    18     0.26     19     0.0  0.00   0.0   0.098   0.000   70.8    52   52.3   69.5   9.63  .0736    0.000   202    7    100.0   10 
 2/20/24  4:20p   50.8   50.9   50.8    90   48.0   3.0     S   0.50   9.0     S   50.6   51.0   50.8   48.5  29.813  0.01  0.06    18     0.26     21     0.0  0.00   0.0   0.099   0.000   70.8    52   52.3   69.5   9.63  .0736    0.000   204    7    100.0   10 
 2/20/24  4:30p   50.6   50.8   50.6    90   47.8   3.0     S   0.50   9.0   ENE   50.4   50.8   50.6   48.5  29.811  0.00  0.06    29     0.42     33     0.0  0.00   0.0   0.100   0.000   70.8    52   52.3   69.5   9.63  .0736    0.000   202    7    100.0   10 
 2/20/24  4:40p   51.1   51.1   50.5    90   48.3   5.0     S   0.83   9.0   SSE   49.5   51.3   49.7   47.7  29.818  0.00  0.00    28     0.40     33     0.0  0.00   0.0   0.097   0.000   70.9    52   52.4   69.6   9.63  .0736    0.000   202    7    100.0   10 
 2/20/24  4:50p   51.4   51.7   51.1    89   48.3   3.0     S   0.50   8.0     S   51.2   51.6   51.4   49.2  29.817  0.01  0.00    23     0.33     30     0.0  0.00   0.0   0.094   0.000   71.0    52   52.5   69.8   9.63  .0735    0.000   201    7    100.0   10 
 2/20/24  5:00p   50.8   51.4   50.8    90   48.0   2.0     S   0.33   9.0   SSE   50.8   51.0   51.0   48.8  29.822  0.01  0.12    25     0.36     28     0.0  0.00   0.0   0.099   0.000   71.2    52   52.7   70.1   9.63  .0735    0.001   201    7    100.0   10 
 2/20/24  5:10p   50.6   50.8   50.5    89   47.5   4.0     S   0.67  10.0    SE   49.6   50.8   49.8   47.8  29.817  0.00  0.00    30     0.43     33     0.0  0.00   0.0   0.100   0.000   71.3    52   52.8   70.2   9.62  .0735    0.000   202    7    100.0   10 
 2/20/24  5:20p   50.6   50.7   50.6    89   47.5   5.0     S   0.83  12.0     S   48.9   50.8   49.1   46.7  29.818  0.00  0.00    14     0.20     21     0.0  0.00   0.0   0.100   0.000   71.4    52   52.9   70.4   9.62  .0735    0.000   204    7    100.0   10 
 2/20/24  5:30p   50.6   50.8   50.6    89   47.5   5.0     S   0.83  11.0     S   48.9   50.8   49.1   46.5  29.821  0.01  0.00     8     0.11     11     0.0  0.00   0.0   0.100   0.000   71.5    51   52.4   70.4   9.42  .0735    0.000   201    7    100.0   10 
 2/20/24  5:40p   50.5   50.6   50.5    89   47.4   7.0     S   1.17  19.0   SSE   47.8   50.7   48.0   45.3  29.826  0.01  0.04     1     0.01      5     0.0  0.00   0.0   0.101   0.000   71.5    51   52.4   70.4   9.42  .0735    0.000   203    7    100.0   10 
 2/20/24  5:50p   50.1   50.5   50.0    89   47.0   6.0     S   1.00  14.0   SSE   47.8   50.3   48.0   45.2  29.813  0.04  0.51     0     0.00      0     0.0  0.00   0.0   0.103   0.000   71.5    51   52.4   70.4   9.42  .0735    0.000   203    7    100.0   10 
 2/20/24  6:00p   49.8   50.1   49.8    89   46.7   6.0     S   1.00  17.0     S   47.5   50.1   47.8   45.0  29.810  0.01  0.19     0     0.00      0     0.0  0.00   0.0   0.106   0.000   71.5    51   52.4   70.4   9.42  .0734    0.001   203    7    100.0   10 
 2/20/24  6:10p   49.7   49.9   49.7    89   46.6   6.0     S   1.00  19.0     S   47.3   50.0   47.6   44.8  29.800  0.01  0.06     0     0.00      0     0.0  0.00   0.0   0.106   0.000   71.4    51   52.3   70.3   9.42  .0734    0.000   201    7    100.0   10 
 2/20/24  6:20p   50.2   50.2   49.7    89   47.1   7.0     S   1.17  16.0     S   47.4   50.4   47.6   44.9  29.809  0.01  0.07     0     0.00      0     0.0  0.00   0.0   0.103   0.000   71.5    51   52.4   70.4   9.42  .0734    0.000   203    7    100.0   10 
 2/20/24  6:30p   50.3   50.3   50.1    89   47.2   6.0     S   1.00  14.0   SSE   48.1   50.5   48.3   45.6  29.812  0.00  0.00     0     0.00      0     0.0  0.00   0.0   0.102   0.000   71.6    51   52.5   70.6   9.42  .0734    0.000   204    7    100.0   10 
 2/20/24  6:40p   50.5   50.6   50.3    89   47.4   8.0     S   1.33  17.0   SSW   47.1   50.7   47.3   44.7  29.816  0.02  0.16     0     0.00      0     0.0  0.00   0.0   0.101   0.000   71.7    51   52.6   70.7   9.42  .0734    0.000   204    7    100.0   10 
 2/20/24  6:50p   50.7   50.7   50.4    88   47.3   9.0     S   1.50  21.0     S   46.7   50.8   46.8   44.3  29.815  0.01  0.16     0     0.00      0     0.0  0.00   0.0   0.099   0.000   71.8    51   52.7   70.9   9.41  .0734    0.000   205    7    100.0   10 
 2/20/24  7:00p   50.6   50.9   50.6    88   47.2  11.0     S   1.83  28.0     S   45.5   50.8   45.7   43.4  29.822  0.01  0.07     0     0.00      0     0.0  0.00   0.0   0.100   0.000   71.8    51   52.7   70.9   9.41  .0734    0.001   203    7    100.0   10 
 2/20/24  7:10p   50.2   50.6   50.2    89   47.1  10.0     S   1.67  23.0   SSE   45.5   50.4   45.7   43.3  29.820  0.01  0.10     0     0.00      0     0.0  0.00   0.0   0.103   0.000   71.8    51   52.7   70.9   9.41  .0734    0.000   204    7    100.0   10 
 2/20/24  7:20p   50.3   50.4   50.1    89   47.2  10.0     S   1.67  22.0   SSE   45.7   50.5   45.9   43.5  29.826  0.00  0.04     0     0.00      0     0.0  0.00   0.0   0.102   0.000   71.7    51   52.6   70.7   9.42  .0735    0.000   204    7    100.0   10 
 2/20/24  7:30p   50.3   50.4   50.3    90   47.5  10.0     S   1.67  17.0   SSE   45.7   50.6   46.0   43.6  29.829  0.01  0.04     0     0.00      0     0.0  0.00   0.0   0.102   0.000   71.5    51   52.4   70.4   9.42  .0735    0.000   204    7    100.0   10 
 2/20/24  7:40p   50.4   50.4   50.2    90   47.6  11.0     S   1.83  26.0     S   45.2   50.7   45.5   43.2  29.831  0.00  0.00     0     0.00      0     0.0  0.00   0.0   0.101   0.000   71.3    51   52.2   70.1   9.42  .0735    0.000   202    7    100.0   10 
 2/20/24  7:50p   50.4   50.5   50.3    89   47.3  10.0     S   1.67  22.0   SSE   45.8   50.6   46.0   43.6  29.833  0.00  0.00     0     0.00      0     0.0  0.00   0.0   0.101   0.000   71.2    51   52.1   70.0   9.43  .0736    0.000   204    7    100.0   10 
 2/20/24  8:00p   50.3   50.5   50.3    89   47.2  11.0     S   1.83  20.0   SSE   45.1   50.5   45.3   43.0  29.831  0.00  0.00     0     0.00      0     0.0  0.00   0.0   0.102   0.000   71.1    51   52.0   69.8   9.43  .0736    0.001   203    7    100.0   10 
 2/20/24  8:10p   50.5   50.5   50.3    90   47.7  10.0     S   1.67  23.0   SSE   45.9   50.8   46.2   43.8  29.837  0.00  0.00     0     0.00      0     0.0  0.00   0.0   0.101   0.000   70.9    51   51.9   69.6   9.43  .0736    0.000   202    7    100.0   10 
 2/20/24  8:20p   50.2   50.5   50.2    90   47.4  11.0     S   1.83  23.0     S   45.0   50.5   45.3   43.0  29.838  0.00  0.00     0     0.00      0     0.0  0.00   0.0   0.103   0.000   70.9    51   51.9   69.6   9.43  .0736    0.000   203    7    100.0   10 
 2/20/24  8:30p   50.0   50.3   50.0    90   47.2   9.0     S   1.50  21.0   SSE   45.9   50.3   46.2   43.7  29.838  0.00  0.00     0     0.00      0     0.0  0.00   0.0   0.104   0.000   70.8    51   51.8   69.4   9.43  .0736    0.000   203    7    100.0   10 
 2/20/24  8:40p   50.0   50.0   49.9    91   47.5   7.0     S   1.17  16.0     S   47.2   50.3   47.5   44.8  29.838  0.00  0.00     0     0.00      0     0.0  0.00   0.0   0.104   0.000   70.6    51   51.6   69.2   9.44  .0737    0.000   204    7    100.0   10 
 2/20/24  8:50p   50.0   50.0   49.9    91   47.5   7.0     S   1.17  13.0   SSE   47.2   50.3   47.5   44.8  29.838  0.00  0.00     0     0.00      0     0.0  0.00   0.0   0.104   0.000   70.6    51   51.6   69.2   9.44  .0737    0.000   204    7    100.0   10 
 2/20/24  9:00p   50.1   50.2   50.0    90   47.3   9.0     S   1.50  15.0   SSE   46.0   50.4   46.3   43.8  29.837  0.00  0.00     0     0.00      0     0.0  0.00   0.0   0.103   0.000   70.5    51   51.5   69.0   9.44  .0737    0.001   203    7    100.0   10 
 2/20/24  9:10p   50.1   50.2   50.1    90   47.3   7.0     S   1.17  17.0     S   47.3   50.4   47.6   44.9  29.839  0.00  0.00     0     0.00      0     0.0  0.00   0.0   0.103   0.000   70.4    51   51.4   68.9   9.44  .0737    0.000   201    7    100.0   10 
 2/20/24  9:20p   50.3   50.3   50.0    91   47.8   7.0     S   1.17  19.0   SSE   47.6   50.6   47.9   45.2  29.839  0.00  0.00     0     0.00      0     0.0  0.00   0.0   0.102   0.000   70.3    51   51.3   68.8   9.44  .0737    0.000   203    7    100.0   10 
 2/20/24  9:30p   50.7   50.7   50.3    90   47.9   7.0     S   1.17  16.0     S   48.0   50.9   48.2   45.5  29.841  0.00  0.00     0     0.00      0     0.0  0.00   0.0   0.099   0.000   70.3    51   51.3   68.8   9.44  .0737    0.000   204    7    100.0   10 
 2/20/24  9:40p   50.7   50.8   50.6    91   48.2   7.0     S   1.17  19.0     S   48.0   51.0   48.3   45.6  29.841  0.00  0.00     0     0.00      0     0.0  0.00   0.0   0.099   0.000   70.2    51   51.2   68.6   9.45  .0737    0.000   203    7    100.0   10 
 2/20/24  9:50p   50.4   50.7   50.4    91   47.9   5.0     S   0.83  14.0     S   48.7   50.7   49.0   46.3  29.839  0.01  0.00     0     0.00      0     0.0  0.00   0.0   0.101   0.000   70.1    51   51.1   68.5   9.45  .0738    0.000   204    7    100.0   10 
 2/20/24 10:00p   50.3   50.5   50.3    92   48.1   5.0     S   0.83  12.0     S   48.6   50.7   49.0   46.3  29.847  0.01  0.05     0     0.00      0     0.0  0.00   0.0   0.102   0.000   70.1    51   51.1   68.5   9.45  .0738    0.001   203    7    100.0   10 
 2/20/24 10:10p   50.7   50.7   50.3    92   48.5   8.0     S   1.33  16.0     S   47.3   51.0   47.6   45.0  29.847  0.00  0.05     0     0.00      0     0.0  0.00   0.0   0.099   0.000   70.0    51   51.0   68.4   9.45  .0738    0.000   203    7    100.0   10 
 2/20/24 10:20p   50.5   50.7   50.4    92   48.3   9.0     S   1.50  20.0   SSE   46.5   50.8   46.8   44.3  29.844  0.00  0.00     0     0.00      0     0.0  0.00   0.0   0.101   0.000   69.9    51   50.9   68.3   9.45  .0738    0.000   201    7    100.0   10 
 2/20/24 10:30p   50.3   50.5   50.2    92   48.1   9.0     S   1.50  17.0   SSE   46.3   50.7   46.7   44.2  29.849  0.00  0.00     0     0.00      0     0.0  0.00   0.0   0.102   0.000   69.8    51   50.9   68.2   9.45  .0738    0.000   198    7    100.0   10 
 2/20/24 10:40p   50.1   50.3   50.1    93   48.2   8.0     S   1.33  14.0     S   46.6   50.5   47.0   44.4  29.850  0.00  0.00     0     0.00      0     0.0  0.00   0.0   0.103   0.000   69.8    51   50.9   68.2   9.45  .0738    0.000   201    7    100.0   10 
 2/20/24 10:50p   50.2   50.2   50.0    93   48.3   8.0     S   1.33  14.0     S   46.7   50.6   47.1   44.5  29.850  0.00  0.00     0     0.00      0     0.0  0.00   0.0   0.103   0.000   69.7    50   50.2   68.1   9.26  .0739    0.000   202    7    100.0   10 
 2/20/24 11:00p   50.1   50.2   50.1    93   48.2   9.0     S   1.50  18.0   SSE   46.0   50.5   46.4   43.9  29.846  0.00  0.00     0     0.00      0     0.0  0.00   0.0   0.103   0.000   69.6    50   50.1   68.0   9.26  .0739    0.001   204    7    100.0   10 
 2/20/24 11:10p   50.4   50.4   50.1    93   48.5   9.0     S   1.50  16.0     S   46.4   50.8   46.8   44.3  29.843  0.00  0.00     0     0.00      0     0.0  0.00   0.0   0.101   0.000   69.6    50   50.1   68.0   9.26  .0739    0.000   203    7    100.0   10 
 2/20/24 11:20p   50.5   50.7   50.4    93   48.6  10.0     S   1.67  22.0   SSE   45.9   50.9   46.3   43.9  29.847  0.00  0.00     0     0.00      0     0.0  0.00   0.0   0.101   0.000   69.5    50   50.0   67.9   9.26  .0739    0.000   204    7    100.0   10 
 2/20/24 11:30p   50.6   50.7   50.5    93   48.7  10.0     S   1.67  19.0     S   46.0   51.0   46.4   44.0  29.847  0.00  0.00     0     0.00      0     0.0  0.00   0.0   0.100   0.000   69.4    50   49.9   67.9   9.26  .0739    0.000   204    7    100.0   10 
 2/20/24 11:40p   50.8   50.9   50.6    94   49.1  11.0     S   1.83  21.0     S   45.7   51.2   46.1   43.8  29.842  0.00  0.00     0     0.00      0     0.0  0.00   0.0   0.099   0.000   69.4    50   49.9   67.9   9.26  .0739    0.000   199    7    100.0   10 
 2/20/24 11:50p   50.8   50.9   50.8    94   49.1  13.0     S   2.17  26.0   SSE   44.8   51.2   45.2   43.1  29.845  0.01  0.00     0     0.00      0     0.0  0.00   0.0   0.099   0.000   69.4    50   49.9   67.9   9.26  .0739    0.000   202    7    100.0   10 
 2/21/24 12:00a   50.8   50.9   50.7    94   49.1  11.0     S   1.83  21.0     S   45.7   51.2   46.1   43.8  29.845  0.02  0.13     0     0.00      0     0.0  0.00   0.0   0.099   0.000   69.3    50   49.9   67.8   9.26  .0739    0.001   201    7    100.0   10 
 2/21/24 12:10a   50.8   50.9   50.7    94   49.1  12.0     S   2.00  30.0     S   45.2   51.2   45.6   43.4  29.847  0.01  0.08     0     0.00      0     0.0  0.00   0.0   0.099   0.000   69.2    50   49.8   67.7   9.27  .0740    0.000   199    7    100.0   10 
 2/21/24 12:20a   50.7   50.8   50.7    94   49.0  11.0     S   1.83  22.0   SSE   45.6   51.1   46.0   43.7  29.848  0.00  0.04     0     0.00      0     0.0  0.00   0.0   0.099   0.000   69.2    50   49.8   67.7   9.27  .0740    0.000   202    7    100.0   10 
 2/21/24 12:30a   50.9   50.9   50.7    95   49.5  11.0     S   1.83  23.0   SSE   45.8   51.3   46.2   43.9  29.848  0.00  0.00     0     0.00      0     0.0  0.00   0.0   0.098   0.000   69.1    50   49.7   67.7   9.27  .0740    0.000   205    7    100.0   10 
 2/21/24 12:40a   51.0   51.0   50.8    95   49.6  14.0     S   2.33  23.0     S   44.7   51.4   45.1   43.0  29.858  0.02  0.12     0     0.00      0     0.0  0.00   0.0   0.097   0.000   69.0    50   49.6   67.6   9.27  .0740    0.000   202    7    100.0   10 
 2/21/24 12:50a   51.0   51.0   50.8    96   49.9  15.0     S   2.50  24.0   SSE   44.3   51.4   44.7   42.7  29.860  0.02  0.28     0     0.00      0     0.0  0.00   0.0   0.097   0.000   69.0    50   49.6   67.6   9.27  .0740    0.000   203    7    100.0   10 
 2/21/24  1:00a   50.9   51.3   50.9    96   49.8  18.0     S   3.00  25.0     S   43.4   51.4   43.9   42.1  29.867  0.01  0.10     0     0.00      0     0.0  0.00   0.0   0.098   0.000   68.9    50   49.5   67.5   9.27  .0741    0.000   204    7    100.0   10 
 2/21/24  1:10a   51.4   51.4   50.9    95   50.0  18.0     S   3.00  25.0   SSE   43.9   51.8   44.3   42.5  29.869  0.00  0.04     0     0.00      0     0.0  0.00   0.0   0.094   0.000   68.9    50   49.5   67.5   9.27  .0741    0.000   205    7    100.0   10 
 2/21/24  1:20a   51.6   51.6   51.4    95   50.2  16.0   SSW   2.67  24.0     S   44.7   51.9   45.0   43.1  29.872  0.00  0.00     0     0.00      0     0.0  0.00   0.0   0.093   0.000   68.8    50   49.4   67.4   9.27  .0741    0.000   201    7    100.0   10 
 2/21/24  1:30a   51.7   51.7   51.5    94   50.0  15.0     S   2.50  23.0   SSE   45.1   52.0   45.4   43.5  29.873  0.00  0.00     0     0.00      0     0.0  0.00   0.0   0.092   0.000   68.7    50   49.3   67.3   9.28  .0741    0.000   203    7    100.0   10 
 2/21/24  1:40a   52.0   52.0   51.7    94   50.3  15.0     S   2.50  21.0   SSE   45.5   52.3   45.8   43.9  29.874  0.00  0.00     0     0.00      0     0.0  0.00   0.0   0.090   0.000   68.7    50   49.3   67.3   9.28  .0741    0.000   201    7    100.0   10 
 2/21/24  1:50a   52.1   52.2   51.9    94   50.4  14.0     S   2.33  21.0     S   45.9   52.4   46.2   44.2  29.875  0.00  0.00     0     0.00      0     0.0  0.00   0.0   0.090   0.000   68.6    50   49.2   67.2   9.28  .0741    0.000   203    7    100.0   10 
 2/21/24  2:00a   51.8   52.1   51.8    94   50.1  13.0     S   2.17  20.0     S   46.0   52.1   46.3   44.2  29.874  0.00  0.00     0     0.00      0     0.0  0.00   0.0   0.092   0.000   68.6    50   49.2   67.2   9.28  .0741    0.001   203    7    100.0   10 
 2/21/24  2:10a   51.9   51.9   51.8    95   50.5  12.0     S   2.00  18.0     S   46.5   52.2   46.8   44.7  29.874  0.00  0.00     0     0.00      0     0.0  0.00   0.0   0.091   0.000   68.5    50   49.1   67.1   9.28  .0741    0.000   203    7    100.0   10 
 2/21/24  2:20a   52.0   52.0   51.8    94   50.3  14.0     S   2.33  21.0   SSE   45.8   52.3   46.1   44.1  29.872  0.00  0.00     0     0.00      0     0.0  0.00   0.0   0.090   0.000   68.5    50   49.1   67.1   9.28  .0741    0.000   203    7    100.0   10 
 2/21/24  2:30a   52.0   52.3   51.9    93   50.0  16.0     S   2.67  24.0   SSE   45.2   52.3   45.5   43.6  29.870  0.00  0.00     0     0.00      0     0.0  0.00   0.0   0.090   0.000   68.4    50   49.0   67.1   9.28  .0741    0.000   203    7    100.0   10 
 2/21/24  2:40a   52.0   52.0   51.8    95   50.6  15.0     S   2.50  24.0   SSE   45.5   52.3   45.8   43.9  29.874  0.00  0.00     0     0.00      0     0.0  0.00   0.0   0.090   0.000   68.4    50   49.0   67.1   9.28  .0742    0.000   203    7    100.0   10 
 2/21/24  2:50a   51.0   51.9   51.0    96   49.9  19.0     S   3.17  27.0     S   43.2   51.4   43.6   41.8  29.875  0.00  0.00     0     0.00      0     0.0  0.00   0.0   0.097   0.000   68.3    50   48.9   67.0   9.28  .0742    0.000   203    7    100.0   10 
 2/21/24  3:00a   51.0   51.0   50.9    97   50.2  16.0     S   2.67  25.0   SSE   44.0   51.5   44.5   42.6  29.874  0.01  0.00     0     0.00      0     0.0  0.00   0.0   0.097   0.000   68.3    50   48.9   67.0   9.28  .0742    0.001   203    7    100.0   10 
 2/21/24  3:10a   51.3   51.3   51.0    97   50.5  15.0     S   2.50  22.0   SSE   44.7   51.8   45.2   43.3  29.877  0.00  0.00     0     0.00      0     0.0  0.00   0.0   0.095   0.000   68.2    50   48.8   66.9   9.29  .0742    0.000   202    7    100.0   10 
 2/21/24  3:20a   51.3   51.4   51.2    97   50.5  15.0     S   2.50  21.0     S   44.7   51.8   45.2   43.3  29.876  0.00  0.00     0     0.00      0     0.0  0.00   0.0   0.095   0.000   68.2    50   48.8   66.9   9.29  .0742    0.000   202    7    100.0   10 
 2/21/24  3:30a   51.8   51.9   51.3    96   50.7  14.0     S   2.33  20.0     S   45.6   52.2   46.0   44.0  29.877  0.00  0.00     0     0.00      0     0.0  0.00   0.0   0.092   0.000   68.1    50   48.8   66.8   9.29  .0742    0.000   204    7    100.0   10 
 2/21/24  3:40a   51.6   51.8   51.5    96   50.5  16.0     S   2.67  23.0     S   44.7   52.0   45.1   43.2  29.878  0.00  0.00     0     0.00      0     0.0  0.00   0.0   0.093   0.000   68.0    50   48.7   66.7   9.29  .0742    0.000   201    7    100.0   10 
 2/21/24  3:50a   51.6   51.8   51.5    96   50.5  15.0     S   2.50  23.0   SSE   45.0   52.0   45.4   43.5  29.880  0.00  0.00     0     0.00      0     0.0  0.00   0.0   0.093   0.000   68.0    50   48.7   66.7   9.29  .0742    0.000   204    7    100.0   10 
 2/21/24  4:00a   51.8   51.8   51.6    96   50.7  17.0     S   2.83  25.0     S   44.7   52.2   45.1   43.3  29.883  0.00  0.00     0     0.00      0     0.0  0.00   0.0   0.092   0.000   67.9    50   48.6   66.6   9.29  .0743    0.000   203    7    100.0   10 
 2/21/24  4:10a   51.5   51.7   51.3    96   50.4  16.0     S   2.67  23.0   ESE   44.6   51.9   45.0   43.1  29.885  0.00  0.00     0     0.00      0     0.0  0.00   0.0   0.094   0.000   67.9    51   49.1   66.7   9.49  .0743    0.000   202    7    100.0   10 
 2/21/24  4:20a   51.4   51.8   51.4    96   50.3  16.0   SSW   2.67  27.0   SSE   44.5   51.8   44.9   43.0  29.885  0.00  0.00     0     0.00      0     0.0  0.00   0.0   0.094   0.000   67.9    51   49.1   66.7   9.49  .0743    0.000   203    7    100.0   10 
 2/21/24  4:30a   51.0   51.4   51.0    96   49.9  17.0     S   2.83  24.0     S   43.7   51.4   44.1   42.2  29.890  0.00  0.00     0     0.00      0     0.0  0.00   0.0   0.097   0.000   67.8    51   49.0   66.6   9.49  .0743    0.000   202    7    100.0   10 
 2/21/24  4:40a   51.3   51.3   51.0    95   49.9  17.0     S   2.83  27.0   SSE   44.1   51.7   44.5   42.6  29.891  0.00  0.00     0     0.00      0     0.0  0.00   0.0   0.095   0.000   67.8    51   49.0   66.6   9.49  .0743    0.000   203    7    100.0   10 
 2/21/24  4:50a   51.5   51.6   51.3    95   50.1  17.0   SSW   2.83  26.0     S   44.3   51.8   44.6   42.8  29.891  0.00  0.00     0     0.00      0     0.0  0.00   0.0   0.094   0.000   67.7    51   48.9   66.5   9.50  .0743    0.000   201    7    100.0   10 
 2/21/24  5:00a   51.6   51.7   51.5    96   50.5  16.0     S   2.67  26.0     S   44.7   52.0   45.1   43.2  29.892  0.01  0.00     0     0.00      0     0.0  0.00   0.0   0.093   0.000   67.7    51   48.9   66.5   9.50  .0743    0.000   202    7    100.0   10 
 2/21/24  5:10a   51.1   51.6   51.1    97   50.3  16.0   SSW   2.67  26.0   SSE   44.1   51.6   44.6   42.7  29.899  0.04  0.35     0     0.00      0     0.0  0.00   0.0   0.097   0.000   67.6    51   48.8   66.4   9.50  .0743    0.000   204    7    100.0   10 
 2/21/24  5:20a   50.3   51.2   50.3    97   49.5  12.0    SW   2.00  22.0    SW   44.6   50.9   45.2   43.0  29.907  0.02  0.22     0     0.00      0     0.0  0.00   0.0   0.102   0.000   67.6    51   48.8   66.4   9.50  .0744    0.000   203    7    100.0   10 
 2/21/24  5:30a   50.4   50.5   50.2    97   49.6  10.0    SW   1.67  14.0   SSW   45.8   50.9   46.3   43.9  29.914  0.01  0.13     0     0.00      0     0.0  0.00   0.0   0.101   0.000   67.5    51   48.7   66.3   9.50  .0744    0.000   201    7    100.0   10 
 2/21/24  5:40a   50.8   50.8   50.4    97   50.0  11.0    SW   1.83  20.0   SSE   45.7   51.3   46.2   43.9  29.921  0.02  0.14     0     0.00      0     0.0  0.00   0.0   0.099   0.000   67.6    51   48.8   66.4   9.50  .0744    0.000   203    7    100.0   10 
 2/21/24  5:50a   50.7   50.8   50.6    97   49.9  10.0   SSW   1.67  16.0   SSE   46.1   51.2   46.6   44.2  29.924  0.02  0.20     0     0.00      0     0.0  0.00   0.0   0.099   0.000   67.8    51   49.0   66.6   9.49  .0744    0.000   204    7    100.0   10 
 2/21/24  6:00a   50.5   50.8   50.5    96   49.4  10.0   SSW   1.67  14.0   SSE   45.9   51.0   46.4   44.0  29.925  0.00  0.04     0     0.00      0     0.0  0.00   0.0   0.101   0.000   68.0    51   49.2   66.8   9.49  .0743    0.000   202    7    100.0   10 
 2/21/24  6:10a   50.6   50.6   50.2    96   49.5  10.0    SW   1.67  14.0   SSW   46.0   51.1   46.5   44.1  29.928  0.00  0.00     0     0.00      0     0.0  0.00   0.0   0.100   0.000   68.2    52   49.9   67.1   9.69  .0743    0.000   202    7    100.0   10 
 2/21/24  6:20a   50.9   51.0   50.6    96   49.8  10.0   SSW   1.67  17.0   SSW   46.4   51.4   46.9   44.5  29.930  0.00  0.00     0     0.00      0     0.0  0.00   0.0   0.098   0.000   68.3    52   50.0   67.2   9.68  .0743    0.000   203    7    100.0   10 
 2/21/24  6:30a   51.1   51.2   50.9    94   49.4  11.0    SW   1.83  17.0   SSE   46.0   51.5   46.4   44.1  29.936  0.00  0.00     0     0.00      0     0.0  0.00   0.0   0.097   0.000   68.6    52   50.3   67.4   9.68  .0742    0.000   204    7    100.0   10 
 2/21/24  6:40a   51.3   51.4   51.1    94   49.6  10.0    SW   1.67  15.0    SW   46.8   51.6   47.1   44.7  29.939  0.00  0.00     0     0.00      0     0.0  0.00   0.0   0.095   0.000   68.6    52   50.3   67.4   9.68  .0742    0.000   204    7    100.0   10 
 2/21/24  6:50a   51.3   51.4   51.2    93   49.3  11.0    SW   1.83  17.0   WSW   46.3   51.6   46.6   44.3  29.945  0.00  0.00     0     0.00      0     0.0  0.00   0.0   0.095   0.000   68.9    52   50.5   67.7   9.67  .0742    0.000   204    7    100.0   10 
 2/21/24  7:00a   51.2   51.5   51.2    93   49.2  11.0    SW   1.83  16.0    SW   46.1   51.5   46.4   44.1  29.950  0.00  0.00     0     0.00      0     0.0  0.00   0.0   0.096   0.000   69.1    52   50.7   67.8   9.67  .0742    0.000   204    7    100.0   10 
 2/21/24  7:10a   51.3   51.4   51.2    93   49.3  11.0    SW   1.83  17.0     S   46.3   51.6   46.6   44.3  29.956  0.00  0.00     0     0.00      0     0.0  0.00   0.0   0.095   0.000   69.3    52   50.9   68.0   9.66  .0742    0.000   202    7    100.0   10 
 2/21/24  7:20a   51.3   51.3   51.2    92   49.1  10.0    SW   1.67  15.0   SSE   46.8   51.6   47.1   44.7  29.959  0.00  0.00     0     0.00      0     0.0  0.00   0.0   0.095   0.000   69.5    52   51.1   68.1   9.66  .0741    0.000   203    7    100.0   10 
 2/21/24  7:30a   51.4   51.5   51.3    92   49.2  10.0   SSW   1.67  16.0     S   46.9   51.7   47.2   44.8  29.964  0.00  0.00     0     0.00      0     0.0  0.00   0.0   0.094   0.000   69.6    52   51.2   68.2   9.66  .0741    0.000   204    7    100.0   10 
 2/21/24  7:40a   51.5   51.5   51.3    92   49.3  10.0   SSW   1.67  15.0    SW   47.1   51.8   47.4   45.1  29.969  0.00  0.00     3     0.04      9     0.0  0.00   0.0   0.094   0.000   69.6    52   51.2   68.2   9.66  .0742    0.000   202    7    100.0   10 
 2/21/24  7:50a   51.5   51.6   51.4    93   49.5  10.0     S   1.67  15.0   SSE   47.1   51.8   47.4   45.4  29.972  0.00  0.00    15     0.22     18     0.0  0.00   0.0   0.094   0.000   69.6    52   51.2   68.2   9.66  .0742    0.000   204    7    100.0   10 
 2/21/24  8:00a   51.6   51.6   51.3    92   49.4  10.0     S   1.67  15.0     S   47.2   51.9   47.5   45.6  29.974  0.00  0.00    20     0.29     21     0.0  0.00   0.0   0.093   0.000   69.6    52   51.2   68.2   9.66  .0742    0.001   201    7    100.0   10 
 2/21/24  8:10a   51.6   51.8   51.5    92   49.4  11.0   SSW   1.83  16.0     S   46.6   51.9   46.9   45.2  29.978  0.00  0.00    29     0.42     42     0.0  0.00   0.0   0.093   0.000   69.6    52   51.2   68.2   9.66  .0742    0.000   203    7    100.0   10 
 2/21/24  8:20a   51.8   51.8   51.6    92   49.5  12.0     S   2.00  18.0     S   46.4   52.0   46.6   46.5  29.984  0.00  0.00    40     0.57     42     0.0  0.00   0.0   0.092   0.000   69.7    52   51.3   68.3   9.66  .0742    0.000   204    7    100.0   10 
 2/21/24  8:30a   51.8   51.8   51.6    92   49.5  10.0   SSW   1.67  17.0     S   47.4   52.0   47.6   47.2  29.989  0.00  0.00    34     0.49     42     0.0  0.00   0.0   0.092   0.000   69.7    52   51.3   68.3   9.66  .0742    0.000   202    7    100.0   10 
 2/21/24  8:40a   51.8   51.9   51.7    92   49.5  11.0     S   1.83  19.0   SSE   46.9   52.0   47.1   46.8  29.991  0.00  0.00    34     0.49     42     0.0  0.00   0.0   0.092   0.000   69.9    52   51.5   68.4   9.65  .0742    0.000   202    7    100.0   10 
 2/21/24  8:50a   51.8   51.9   51.7    92   49.5  12.0   SSW   2.00  18.0     S   46.4   52.0   46.6   46.8  29.998  0.00  0.00    48     0.69     62     0.0  0.00   0.0   0.092   0.000   69.9    52   51.5   68.4   9.65  .0742    0.000   201    7    100.0   10 
 2/21/24  9:00a   51.7   51.9   51.7    92   49.5  12.0     S   2.00  17.0     S   46.2   52.0   46.5   47.2  30.004  0.00  0.00    66     0.95     77     0.0  0.00   0.0   0.092   0.000   70.0    52   51.6   68.5   9.65  .0742    0.001   203    7    100.0   10 
 2/21/24  9:10a   51.7   52.0   51.7    92   49.5  12.0     S   2.00  20.0   SSE   46.2   52.0   46.5   47.7  30.006  0.00  0.00    82     1.18    102     0.0  0.00   0.0   0.092   0.000   70.0    52   51.6   68.5   9.65  .0742    0.000   202    7    100.0   10 
 2/21/24  9:20a   52.1   52.1   51.7    92   49.8  12.0     S   2.00  17.0   SSE   46.7   52.3   46.9   47.5  30.010  0.00  0.00    62     0.89     93     0.0  0.00   0.0   0.090   0.000   69.9    52   51.5   68.4   9.65  .0742    0.000   204    7    100.0   10 
 2/21/24  9:30a   52.0   52.1   51.8    92   49.7  11.0   SSW   1.83  19.0     S   47.1   52.2   47.3   48.5  30.014  0.00  0.00    82     1.18     90     0.0  0.00   0.0   0.090   0.000   69.9    51   50.9   68.3   9.45  .0742    0.000   204    7    100.0   10 
 2/21/24  9:40a   51.7   52.1   51.6    92   49.5  12.0   SSW   2.00  16.0   SSE   46.2   52.0   46.5   47.6  30.020  0.00  0.00    80     1.15     86     0.0  0.00   0.0   0.092   0.000   70.0    51   51.0   68.4   9.45  .0742    0.000   201    7    100.0   10 
 2/21/24  9:50a   52.1   52.1   51.7    92   49.8  10.0     S   1.67  16.0   SSW   47.7   52.3   47.9   48.7  30.022  0.00  0.00    71     1.02    121     0.0  0.00   0.5   0.090   0.000   70.1    51   51.1   68.5   9.45  .0742    0.000   203    7    100.0   10 
 2/21/24 10:00a   52.1   52.2   52.0    92   49.8  13.0     S   2.17  19.0     S   46.3   52.3   46.5   50.9  30.028  0.00  0.00   205     2.94    239     0.6  0.04   0.7   0.090   0.000   70.2    51   51.2   68.6   9.45  .0742    0.002   203    7    100.0   10 
 2/21/24 10:10a   52.1   52.1   51.9    92   49.8  13.0     S   2.17  18.0   SSE   46.3   52.3   46.5   48.1  30.031  0.00  0.00   104     1.49    158     0.0  0.00   0.0   0.090   0.000   70.3    51   51.3   68.8   9.44  .0742    0.000   205    7    100.0   10 
 2/21/24 10:20a   52.1   52.2   51.9    93   50.1  13.0     S   2.17  21.0   SSE   46.3   52.4   46.6   49.0  30.035  0.00  0.00   133     1.91    178     0.4  0.03   0.7   0.090   0.000   70.4    51   51.4   68.9   9.44  .0742    0.000   202    7    100.0   10 
 2/21/24 10:30a   52.1   52.2   52.1    93   50.1  12.0   SSW   2.00  17.0   SSE   46.7   52.4   47.0   48.1  30.038  0.00  0.00    88     1.26    118     0.2  0.01   0.6   0.090   0.000   70.5    51   51.5   69.0   9.44  .0742    0.000   201    7    100.0   10 
 2/21/24 10:40a   52.0   52.1   51.7    93   50.0  14.0   SSW   2.33  23.0   SSE   45.8   52.3   46.1   49.0  30.044  0.00  0.00   161     2.31    227     1.0  0.07   1.4   0.090   0.000   70.5    51   51.5   69.0   9.44  .0742    0.000   203    7    100.0   10 
 2/21/24 10:50a   52.1   52.2   52.0    92   49.8  14.0     S   2.33  21.0   SSE   45.9   52.3   46.1   51.2  30.050  0.00  0.00   261     3.74    287     1.1  0.08   1.4   0.090   0.000   70.5    51   51.5   69.0   9.44  .0742    0.000   205    7    100.0   10 
 2/21/24 11:00a   52.3   52.3   52.1    92   50.0  12.0   SSW   2.00  18.0   SSE   46.9   52.5   47.1   53.6  30.053  0.00  0.00   314     4.50    329     1.1  0.08   1.2   0.088   0.000   70.6    51   51.6   69.2   9.44  .0742    0.004   200    7    100.0   10 
 2/21/24 11:10a   52.3   52.4   52.2    92   50.0  12.0     S   2.00  18.0     S   46.9   52.5   47.1   54.2  30.057  0.00  0.00   352     5.05    408     1.3  0.09   1.4   0.088   0.000   70.6    51   51.6   69.2   9.44  .0742    0.000   203    7    100.0   10 
 2/21/24 11:20a   52.4   52.4   52.3    92   50.1  12.0     S   2.00  16.0   SSE   47.0   52.6   47.2   54.5  30.056  0.00  0.00   368     5.28    448     1.3  0.09   1.8   0.087   0.000   70.6    51   51.6   69.2   9.44  .0742    0.000   204    7    100.0   10 
 2/21/24 11:30a   52.3   52.5   52.2    91   49.8  12.0     S   2.00  16.0   SSE   46.9   52.5   47.1   50.5  30.057  0.00  0.00   181     2.59    536     0.8  0.06   1.5   0.088   0.000   70.7    51   51.7   69.3   9.44  .0742    0.000   202    7    100.0   10 
 2/21/24 11:40a   51.3   52.3   51.3    91   48.8  12.0     S   2.00  18.0     S   45.8   51.5   46.0   46.2  30.060  0.06  1.68    68     0.97    102     0.0  0.00   0.0   0.095   0.000   70.7    51   51.7   69.3   9.44  .0742    0.000   203    7    100.0   10 
 2/21/24 11:50a   51.4   51.5   51.2    93   49.4  11.0   SSW   1.83  25.0    SW   46.4   51.7   46.7   46.2  30.066  0.03  0.62    41     0.59     62     0.0  0.00   0.0   0.094   0.000   70.7    51   51.7   69.3   9.44  .0742    0.000   204    7    100.0   10 
 2/21/24 12:00p   50.3   51.4   50.3    91   47.8  17.0     S   2.83  28.0   SSE   42.9   50.6   43.2   44.9  30.074  0.00  0.04   129     1.85    155     0.6  0.04   0.6   0.102   0.000   70.7    51   51.7   69.3   9.44  .0742    0.004   202    7    100.0   10 
 2/21/24 12:10p   50.6   50.6   50.1    93   48.7  12.0     S   2.00  17.0   SSE   45.0   51.0   45.4   46.4  30.074  0.02  0.11    92     1.32    113     0.2  0.01   0.5   0.100   0.000   70.6    51   51.6   69.2   9.44  .0743    0.000   203    7    100.0   10 
 2/21/24 12:20p   50.7   51.0   50.5    92   48.5  11.0     S   1.83  17.0   SSE   45.6   51.0   45.9   47.3  30.074  0.00  0.05   106     1.52    264     0.3  0.02   1.2   0.099   0.000   70.6    51   51.6   69.2   9.44  .0743    0.000   201    7    100.0   10 
 2/21/24 12:30p   51.8   51.8   50.7    93   49.8   9.0     S   1.50  13.0     S   48.0   52.1   48.3   53.0  30.076  0.00  0.00   216     3.10    288     1.0  0.07   1.3   0.092   0.000   70.6    51   51.6   69.2   9.44  .0743    0.000   202    7    100.0   10 
 2/21/24 12:40p   52.2   52.2   51.8    92   49.9  14.0   SSW   2.33  20.0     S   46.0   52.4   46.2   51.5  30.079  0.00  0.00   278     3.99    345     1.2  0.09   1.5   0.089   0.000   70.6    51   51.6   69.2   9.44  .0743    0.000   204    7    100.0   10 
 2/21/24 12:50p   52.3   52.4   52.2    90   49.5  15.0     S   2.50  22.0   SSE   45.8   52.5   46.0   51.9  30.081  0.00  0.00   317     4.54    724     1.5  0.11   2.1   0.088   0.000   70.6    51   51.6   69.2   9.44  .0743    0.000   203    7    100.0   10 
 2/21/24  1:00p   52.3   52.5   52.2    90   49.5  14.0   SSW   2.33  22.0   SSE   46.1   52.5   46.3   50.8  30.082  0.00  0.00   234     3.35    264     1.6  0.11   2.0   0.088   0.000   70.7    51   51.7   69.3   9.44  .0743    0.005   203    7    100.0   10 
 2/21/24  1:10p   52.4   52.4   52.2    91   49.8  13.0   SSW   2.17  19.0   SSE   46.6   52.6   46.8   52.0  30.085  0.00  0.00   258     3.70    322     1.2  0.09   1.3   0.087   0.000   70.6    51   51.6   69.2   9.44  .0743    0.000   204    7    100.0   10 
 2/21/24  1:20p   52.1   52.4   52.1    90   49.3  14.0     S   2.33  20.0   SSE   45.9   52.3   46.1   48.9  30.086  0.00  0.00   156     2.24    225     0.7  0.05   0.9   0.090   0.000   70.6    51   51.6   69.2   9.44  .0743    0.000   204    7    100.0   10 
 2/21/24  1:30p   51.7   52.4   51.7    89   48.6  14.0   SSW   2.33  19.0   SSE   45.5   51.9   45.7   50.3  30.092  0.00  0.00   235     3.37    246     1.1  0.08   1.1   0.092   0.000   70.6    51   51.6   69.2   9.44  .0743    0.000   202    7    100.0   10 
 2/21/24  1:40p   51.5   51.8   51.5    89   48.4  12.0     S   2.00  22.0   SSE   46.0   51.7   46.2   49.5  30.097  0.00  0.00   165     2.37    244     0.9  0.06   1.2   0.094   0.000   70.6    51   51.6   69.2   9.44  .0743    0.000   200    7    100.0   10 
 2/21/24  1:50p   50.0   51.5   50.0    91   47.5  18.0    SW   3.00  25.0    SW   42.3   50.3   42.6   44.4  30.104  0.03  0.28   126     1.81    236     0.4  0.03   0.9   0.104   0.000   70.5    51   51.5   69.0   9.44  .0744    0.000   200    7    100.0   10 
 2/21/24  2:00p   50.8   51.0   50.0    90   48.0  16.0    SW   2.67  23.0    SW   43.8   51.0   44.0   47.3  30.105  0.00  0.05   177     2.54    230     0.7  0.05   0.9   0.099   0.000   70.5    51   51.5   69.0   9.44  .0744    0.004   204    7    100.0   10 
 2/21/24  2:10p   51.2   51.2   50.7    91   48.7  15.0    SW   2.50  22.0    SW   44.5   51.4   44.7   47.0  30.109  0.00  0.00   133     1.91    163     0.6  0.04   0.7   0.096   0.000   70.4    51   51.4   68.9   9.44  .0744    0.000   204    7    100.0   10 
 2/21/24  2:20p   51.2   51.5   51.1    89   48.1  14.0   SSW   2.33  22.0    SW   44.9   51.4   45.1   47.0  30.110  0.00  0.00   113     1.62    135     0.4  0.03   0.5   0.096   0.000   70.4    51   51.4   68.9   9.44  .0744    0.000   203    7    100.0   10 
 2/21/24  2:30p   51.4   51.4   51.2    89   48.3  12.0   SSW   2.00  18.0   SSE   45.9   51.6   46.1   49.5  30.108  0.00  0.00   159     2.28    178     0.6  0.04   0.7   0.094   0.000   70.5    51   51.5   69.0   9.44  .0744    0.000   203    7    100.0   10 
 2/21/24  2:40p   51.6   51.6   51.4    88   48.2  12.0   SSW   2.00  18.0     S   46.1   51.7   46.2   50.3  30.109  0.00  0.00   180     2.58    232     0.6  0.04   0.7   0.093   0.000   70.4    51   51.4   68.9   9.44  .0744    0.000   202    7    100.0   10 
 2/21/24  2:50p   52.1   52.1   51.6    88   48.7  10.0     S   1.67  14.0   SSE   47.7   52.2   47.8   56.2  30.109  0.00  0.00   322     4.62    380     0.9  0.06   1.1   0.090   0.000   70.5    51   51.5   69.0   9.44  .0744    0.000   202    7    100.0   10 
 2/21/24  3:00p   52.7   52.7   52.1    88   49.2  10.0     S   1.67  15.0   SSE   48.4   52.8   48.5   59.8  30.112  0.00  0.00   395     5.66    483     1.0  0.07   1.1   0.085   0.000   70.5    51   51.5   69.0   9.44  .0744    0.005   204    7    100.0   10 
 2/21/24  3:10p   52.6   52.8   52.6    89   49.4  10.0   SSW   1.67  16.0   SSE   48.3   52.7   48.4   55.9  30.113  0.00  0.00   280     4.01    353     0.8  0.06   0.9   0.086   0.000   70.5    51   51.5   69.0   9.44  .0744    0.000   204    7    100.0   10 
 2/21/24  3:20p   52.9   53.0   52.6    89   49.7  11.0   SSW   1.83  16.0    SW   48.1   53.0   48.2   57.6  30.114  0.00  0.00   331     4.74    373     0.8  0.06   0.8   0.084   0.000   70.5    51   51.5   69.0   9.44  .0744    0.000   203    7    100.0   10 
 2/21/24  3:30p   52.7   53.0   52.6    88   49.2  10.0   SSW   1.67  16.0   SSE   48.4   52.8   48.5   54.9  30.115  0.00  0.00   234     3.35    285     0.7  0.05   0.7   0.085   0.000   70.5    51   51.5   69.0   9.44  .0744    0.000   203    7    100.0   10 
 2/21/24  3:40p   52.0   52.7   52.0    89   48.9  10.0     S   1.67  15.0   SSE   47.6   52.2   47.8   50.9  30.117  0.00  0.00   144     2.06    200     0.5  0.04   0.6   0.090   0.000   70.5    51   51.5   69.0   9.44  .0744    0.000   203    7    100.0   10 
 2/21/24  3:50p   51.9   52.1   51.9    91   49.4   8.0     S   1.33  13.0     S   48.8   52.1   49.0   47.9  30.119  0.00  0.00    87     1.25     98     0.0  0.00   0.0   0.091   0.000   70.4    51   51.4   68.9   9.44  .0744    0.000   204    7    100.0   10 
 2/21/24  4:00p   51.0   52.0   50.9    90   48.2   9.0     S   1.50  16.0   SSE   47.1   51.2   47.3   45.5  30.124  0.00  0.00    53     0.76     65     0.0  0.00   0.0   0.097   0.000   70.4    51   51.4   68.9   9.44  .0744    0.004   202    7    100.0   10 
 2/21/24  4:10p   51.3   51.4   50.9    92   49.1  10.0     S   1.67  19.0     S   46.8   51.6   47.1   45.5  30.127  0.00  0.00    59     0.85     70     0.0  0.00   0.0   0.095   0.000   70.2    51   51.2   68.6   9.45  .0745    0.000   203    7    100.0   10 
 2/21/24  4:20p   50.5   51.2   50.3    91   48.0  12.0     S   2.00  19.0   SSE   44.8   50.8   45.1   43.6  30.130  0.01  0.00    64     0.92     77     0.0  0.00   0.0   0.101   0.000   70.1    51   51.1   68.5   9.45  .0745    0.000   204    7    100.0   10 
 2/21/24  4:30p   50.8   50.9   50.5    91   48.3   9.0     S   1.50  14.0     S   46.9   51.1   47.2   45.8  30.128  0.00  0.00    79     1.13    109     0.0  0.00   0.0   0.099   0.000   70.1    51   51.1   68.5   9.45  .0745    0.000   202    7    100.0   10 
 2/21/24  4:40p   51.4   51.4   50.9    91   48.9   9.0     S   1.50  14.0     S   47.5   51.6   47.7   46.7  30.129  0.00  0.00    94     1.35    111     0.0  0.00   0.0   0.094   0.000   70.0    51   51.0   68.4   9.45  .0745    0.000   203    7    100.0   10 
 2/21/24  4:50p   51.6   51.7   51.4    90   48.8   9.0     S   1.50  14.0     S   47.8   51.8   48.0   46.6  30.132  0.01  0.00    79     1.13    102     0.0  0.00   0.0   0.093   0.000   70.1    51   51.1   68.5   9.45  .0745    0.000   204    7    100.0   10 
 2/21/24  5:00p   51.5   51.9   51.5    90   48.7   5.0     S   0.83  10.0     S   50.0   51.7   50.2   48.7  30.132  0.00  0.00    78     1.12    107     0.0  0.00   0.0   0.094   0.000   70.1    51   51.1   68.5   9.45  .0745    0.002   204    7    100.0   10 
 2/21/24  5:10p   51.0   51.5   51.0    90   48.2   4.0     S   0.67   9.0   SSE   50.0   51.2   50.2   47.9  30.135  0.00  0.00    39     0.56     54     0.0  0.00   0.0   0.097   0.000   70.0    51   51.0   68.4   9.45  .0745    0.000   205    7    100.0   10 
 2/21/24  5:20p   50.9   51.0   50.9    91   48.4   4.0     S   0.67  10.0   SSE   49.9   51.2   50.2   47.4  30.140  0.00  0.00    18     0.26     23     0.0  0.00   0.0   0.098   0.000   70.0    51   51.0   68.4   9.45  .0745    0.000   201    7    100.0   10 
 2/21/24  5:30p   50.7   50.9   50.7    91   48.2   4.0     S   0.67   8.0   SSE   49.7   51.0   50.0   47.1  30.139  0.00  0.00    13     0.19     16     0.0  0.00   0.0   0.099   0.000   70.0    51   51.0   68.4   9.45  .0745    0.000   198    7    100.0   10 
Email: AdamSPAM@StormwatchersRetreat.com (To send me email remove the word 'SPAM' from my email address.)